Terminal Aerodrome Forecast
Issued by NWS Grand Forks, ND

Home | Current Version | Previous Version | Graphics & Text | Print | Product List | Glossary On
Versions: 1 2 3 4 5 6 7 8 9 10 11 12
887
FTUS43 KFGF 181135
TAFGFK
TAF
KGFK 181135Z 1812/1912 VRB04KT P6SM SCT200
     FM181500 04010KT P6SM SCT250
     FM190200 VRB03KT P6SM SCT200=

USA.gov is the U.S. government's official web portal to all federal, state and local government web resources and services.